Time;durP1;ratioP1;P1;durP2;ratioP2;P2;SDS_P1;SDS_P2;PMS_P1;PMS_P2;Temp;Humidity;BMP_temperature;BMP_pressure;BME280_temperature;BME280_humidity;BME280_pressure;Samples;Min_cycle;Max_cycle;Signal;HPM_P1;HPM_P2
2022/12/02 00:02:29;;;;;;;15.93;10.82;;;7.20;99.90;;;;;;1947370;72;22148;-87
2022/12/02 00:05:31;;;;;;;15.45;10.18;;;7.20;99.90;;;;;;1916924;73;21060;-88
2022/12/02 00:08:25;;;;;;;18.37;10.40;;;7.20;99.90;;;;;;1903984;75;21136;-87
2022/12/02 00:14:13;;;;;;;14.95;10.45;;;7.10;99.90;;;;;;1954200;73;22222;-88
2022/12/02 00:17:04;;;;;;;18.05;11.38;;;7.10;99.90;;;;;;1901266;75;21074;-87
2022/12/02 00:22:39;;;;;;;15.38;10.98;;;7.10;99.90;;;;;;1954382;72;22301;-88
2022/12/02 00:28:23;;;;;;;20.08;11.73;;;7.10;99.90;;;;;;1952257;72;22287;-88
2022/12/02 00:31:15;;;;;;;13.48;9.98;;;7.00;99.90;;;;;;1914883;73;21062;-86
2022/12/02 00:34:07;;;;;;;13.18;9.70;;;7.00;99.90;;;;;;1924629;74;21094;-87
2022/12/02 00:39:38;;;;;;;15.80;11.00;;;7.00;99.90;;;;;;1931748;72;22169;-85
2022/12/02 00:48:30;;;;;;;17.05;10.55;;;7.00;99.90;;;;;;1918241;73;21134;-88
2022/12/02 00:54:09;;;;;;;18.87;10.35;;;7.00;99.90;;;;;;1953743;72;22138;-86
2022/12/02 00:57:01;;;;;;;14.47;10.30;;;7.00;99.90;;;;;;1934594;74;21102;-88
2022/12/02 00:59:52;;;;;;;13.72;9.93;;;7.00;99.90;;;;;;1924266;74;21538;-88
2022/12/02 01:02:44;;;;;;;14.10;9.83;;;7.00;99.90;;;;;;1926750;74;21111;-88
2022/12/02 01:05:35;;;;;;;13.95;10.10;;;7.00;99.90;;;;;;1918645;74;21108;-88
2022/12/02 01:08:33;;;;;;;15.60;10.72;;;7.00;99.90;;;;;;1917621;74;21208;-88
2022/12/02 01:14:17;;;;;;;15.00;11.03;;;7.00;99.90;;;;;;1938306;72;22183;-88
2022/12/02 01:17:08;;;;;;;17.85;12.93;;;7.00;99.90;;;;;;1915737;73;21108;-87
2022/12/02 01:20:00;;;;;;;16.67;11.57;;;7.00;99.90;;;;;;1926951;73;21117;-86
2022/12/02 01:22:51;;;;;;;16.40;12.63;;;7.00;99.90;;;;;;1931355;73;21168;-87
2022/12/02 01:25:43;;;;;;;20.97;12.30;;;7.00;99.90;;;;;;1923556;73;21139;-87
2022/12/02 01:28:34;;;;;;;16.30;11.93;;;7.00;99.90;;;;;;1914584;74;21125;-86
2022/12/02 01:31:26;;;;;;;16.57;11.43;;;7.00;99.90;;;;;;1932703;73;21038;-87
2022/12/02 01:37:01;;;;;;;15.13;10.70;;;6.90;99.90;;;;;;1929871;72;22743;-88
2022/12/02 01:39:53;;;;;;;16.70;11.25;;;6.90;99.90;;;;;;1885779;75;21072;-87
2022/12/02 01:42:46;;;;;;;15.43;10.72;;;6.90;99.90;;;;;;1882114;75;21080;-87
2022/12/02 01:45:37;;;;;;;16.50;10.65;;;6.90;99.90;;;;;;1874701;75;21106;-87
2022/12/02 01:48:30;;;;;;;18.77;11.22;;;6.90;99.90;;;;;;1891967;75;21152;-88
2022/12/02 01:54:02;;;;;;;13.80;10.70;;;6.90;99.90;;;;;;1941482;72;22209;-88
2022/12/02 01:56:53;;;;;;;15.43;10.65;;;6.80;99.90;;;;;;1898996;75;21111;-87
2022/12/02 02:02:28;;;;;;;18.10;11.03;;;6.80;99.90;;;;;;1939238;72;22312;-88
2022/12/02 02:08:13;;;;;;;15.78;11.50;;;6.80;99.90;;;;;;1959311;72;22193;-88
2022/12/02 02:11:05;;;;;;;15.83;11.45;;;6.80;99.90;;;;;;1938762;73;21051;-87
2022/12/02 02:13:57;;;;;;;19.30;12.20;;;6.80;99.90;;;;;;1917272;75;21191;-87
2022/12/02 02:16:49;;;;;;;15.98;11.55;;;6.80;99.90;;;;;;1926368;73;21518;-88
2022/12/02 02:22:23;;;;;;;15.63;11.45;;;6.80;99.90;;;;;;1927124;72;22230;-88
2022/12/02 02:27:59;;;;;;;14.25;10.23;;;6.80;99.90;;;;;;1938423;72;22182;-88
2022/12/02 02:33:34;;;;;;;17.35;9.83;;;6.70;99.90;;;;;;1945001;72;22198;-88
2022/12/02 02:36:26;;;;;;;16.77;11.45;;;6.70;99.90;;;;;;1899273;75;22221;-87
2022/12/02 02:39:18;;;;;;;16.97;10.90;;;6.70;99.90;;;;;;1891785;75;21094;-87
2022/12/02 02:42:10;;;;;;;14.58;10.82;;;6.70;99.90;;;;;;1896923;75;21135;-87
2022/12/02 02:45:03;;;;;;;15.30;10.28;;;6.70;99.90;;;;;;1903489;75;21163;-87
2022/12/02 02:47:56;;;;;;;16.00;11.18;;;6.70;99.90;;;;;;1906433;75;21098;-87
2022/12/02 02:50:57;;;;;;;13.55;10.70;;;6.70;99.90;;;;;;1901899;75;21553;-87
2022/12/02 02:53:48;;;;;;;17.23;12.07;;;6.70;99.90;;;;;;1884863;75;21195;-87
2022/12/02 02:56:40;;;;;;;16.20;11.50;;;6.70;99.90;;;;;;1902782;75;21152;-88
2022/12/02 03:02:57;;;;;;;16.37;11.55;;;6.60;99.90;;;;;;1938117;73;22201;-88
2022/12/02 03:05:51;;;;;;;16.82;11.18;;;6.50;99.90;;;;;;1866552;75;21170;-87
2022/12/02 03:08:46;;;;;;;14.33;10.95;;;6.60;99.90;;;;;;1864264;75;21266;-87
2022/12/02 03:14:25;;;;;;;17.32;11.78;;;6.50;99.90;;;;;;1948842;72;22175;-88
2022/12/02 03:17:17;;;;;;;20.05;12.13;;;6.50;99.90;;;;;;1887413;75;21134;-89
2022/12/02 03:22:52;;;;;;;17.50;11.43;;;6.50;99.90;;;;;;1958410;72;22208;-88
2022/12/02 03:25:44;;;;;;;15.28;10.75;;;6.60;99.90;;;;;;1928218;73;21191;-88
2022/12/02 03:28:36;;;;;;;16.73;11.97;;;6.50;99.90;;;;;;1919807;74;21087;-87
2022/12/02 03:31:29;;;;;;;16.05;11.30;;;6.50;99.90;;;;;;1924402;73;21105;-87
2022/12/02 03:37:00;;;;;;;16.35;11.25;;;6.40;99.90;;;;;;1942818;72;22218;-88
2022/12/02 03:42:36;;;;;;;14.38;10.65;;;6.50;99.90;;;;;;1949812;72;22147;-88
2022/12/02 03:45:28;;;;;;;15.58;11.20;;;6.50;99.90;;;;;;1920224;73;21087;-88
2022/12/02 03:48:21;;;;;;;17.57;12.68;;;6.50;99.90;;;;;;1947320;73;21142;-88
2022/12/02 03:51:14;;;;;;;17.67;12.93;;;6.50;99.90;;;;;;1923087;73;21116;-87
2022/12/02 03:54:06;;;;;;;16.90;12.95;;;6.50;99.90;;;;;;1917089;73;21067;-87
2022/12/02 03:56:58;;;;;;;17.37;12.80;;;6.50;99.90;;;;;;1934045;73;21098;-87
2022/12/02 03:59:50;;;;;;;16.48;13.40;;;6.50;99.90;;;;;;1932586;73;21087;-87
2022/12/02 04:02:41;;;;;;;16.87;11.00;;;6.50;99.90;;;;;;1939722;73;21043;-87
2022/12/02 04:05:33;;;;;;;15.03;10.68;;;6.50;99.90;;;;;;1935149;73;21127;-87
2022/12/02 04:11:05;;;;;;;16.57;10.70;;;6.50;99.90;;;;;;1940540;72;22153;-88
2022/12/02 04:13:57;;;;;;;15.20;10.13;;;6.50;99.90;;;;;;1945730;72;21083;-88
2022/12/02 04:16:48;;;;;;;15.08;10.03;;;6.50;99.90;;;;;;1926785;73;21078;-88
2022/12/02 04:22:23;;;;;;;14.13;10.03;;;6.50;99.90;;;;;;1933547;72;22194;-87
2022/12/02 04:25:15;;;;;;;14.15;9.98;;;6.50;99.90;;;;;;1885042;75;21098;-88
2022/12/02 04:28:07;;;;;;;15.48;9.50;;;6.50;99.90;;;;;;1876439;75;21063;-88
2022/12/02 04:30:59;;;;;;;15.18;10.08;;;6.50;99.90;;;;;;1878113;75;21087;-87
2022/12/02 04:33:50;;;;;;;15.25;10.18;;;6.50;99.90;;;;;;1872521;75;21159;-87
2022/12/02 04:36:42;;;;;;;12.23;9.05;;;6.50;99.90;;;;;;1882163;75;21179;-87
2022/12/02 04:39:34;;;;;;;12.75;9.53;;;6.50;99.90;;;;;;1890789;75;21318;-88
2022/12/02 04:42:25;;;;;;;13.40;9.08;;;6.50;99.90;;;;;;1882438;75;21084;-89
2022/12/02 04:47:56;;;;;;;13.43;9.63;;;6.40;99.90;;;;;;1954181;72;22189;-88
2022/12/02 04:50:48;;;;;;;17.07;9.55;;;6.40;99.90;;;;;;1931965;73;21103;-87
2022/12/02 04:53:40;;;;;;;13.60;9.40;;;6.40;99.90;;;;;;1904726;74;21105;-88
2022/12/02 04:56:34;;;;;;;12.98;9.13;;;6.50;99.90;;;;;;1924707;74;21126;-87
2022/12/02 05:02:09;;;;;;;13.00;9.30;;;6.40;99.90;;;;;;1939844;72;22178;-88
2022/12/02 05:07:44;;;;;;;14.98;9.25;;;6.40;99.90;;;;;;1927950;72;22209;-89
2022/12/02 05:10:36;;;;;;;11.10;9.03;;;6.40;99.90;;;;;;1884071;75;21142;-87
2022/12/02 05:13:27;;;;;;;12.98;9.03;;;6.40;99.90;;;;;;1876760;75;21558;-87
2022/12/02 05:16:18;;;;;;;13.70;9.03;;;6.40;99.90;;;;;;1883090;75;21172;-89
2022/12/02 05:19:10;;;;;;;17.00;9.53;;;6.30;99.90;;;;;;1872655;75;21166;-86
2022/12/02 05:22:01;;;;;;;15.23;9.83;;;6.30;99.90;;;;;;1891932;75;21094;-87
2022/12/02 05:24:53;;;;;;;12.63;9.48;;;6.30;99.90;;;;;;1894239;75;21149;-87
2022/12/02 05:27:47;;;;;;;14.53;9.85;;;6.30;99.90;;;;;;1882320;75;21090;-88
2022/12/02 05:30:38;;;;;;;14.18;9.55;;;6.30;99.90;;;;;;1883671;75;21202;-86
2022/12/02 05:33:30;;;;;;;12.93;9.70;;;6.30;99.90;;;;;;1887635;75;21059;-89
2022/12/02 05:39:03;;;;;;;16.45;10.58;;;6.30;99.90;;;;;;1941709;72;22590;-88
2022/12/02 05:41:58;;;;;;;12.00;9.65;;;6.30;99.90;;;;;;1900254;75;21119;-87
2022/12/02 05:44:49;;;;;;;12.23;9.55;;;6.30;99.90;;;;;;1893360;75;21177;-87
2022/12/02 05:47:41;;;;;;;14.55;9.98;;;6.20;99.90;;;;;;1892680;75;21310;-87
2022/12/02 05:53:21;;;;;;;11.83;9.40;;;6.20;99.90;;;;;;1956429;72;22139;-88
2022/12/02 05:56:20;;;;;;;14.13;9.50;;;6.10;99.90;;;;;;1905128;75;21158;-88
2022/12/02 06:02:02;;;;;;;14.38;10.18;;;6.20;99.90;;;;;;1943299;72;22139;-88
2022/12/02 06:07:44;;;;;;;17.12;10.40;;;6.10;99.90;;;;;;1941265;72;22156;-88
2022/12/02 06:13:18;;;;;;;14.03;9.83;;;6.10;99.90;;;;;;1931394;72;22220;-88
2022/12/02 06:16:14;;;;;;;14.15;10.10;;;6.10;99.90;;;;;;1888049;75;21248;-88
2022/12/02 06:21:49;;;;;;;18.00;9.65;;;6.10;99.90;;;;;;1913351;73;22247;-88
2022/12/02 06:24:41;;;;;;;12.82;9.20;;;6.00;99.90;;;;;;1895063;73;21166;-88
2022/12/02 06:27:37;;;;;;;11.38;8.55;;;6.00;99.90;;;;;;1905251;73;21160;-88
2022/12/02 06:33:19;;;;;;;13.05;8.75;;;6.00;99.90;;;;;;1966646;72;22269;-88
2022/12/02 06:36:15;;;;;;;11.88;9.13;;;6.00;99.90;;;;;;1943098;73;21144;-89
2022/12/02 06:39:21;;;;;;;15.30;9.15;;;6.00;99.90;;;;;;1917119;73;21191;-94
2022/12/02 06:42:20;;;;;;;13.90;8.75;;;6.00;99.90;;;;;;1931199;73;21219;-79
2022/12/02 06:48:02;;;;;;;12.30;8.60;;;6.10;99.90;;;;;;1936162;72;22213;-80
2022/12/02 06:50:54;;;;;;;12.93;8.58;;;6.00;99.90;;;;;;1888185;75;22251;-80
2022/12/02 06:56:27;;;;;;;13.95;8.58;;;6.00;99.90;;;;;;1934299;72;22259;-80
2022/12/02 07:02:01;;;;;;;10.58;8.05;;;5.90;99.90;;;;;;1926628;72;22202;-80
2022/12/02 07:07:36;;;;;;;11.18;7.95;;;6.00;99.90;;;;;;1936364;72;22247;-80
2022/12/02 07:13:13;;;;;;;11.90;8.05;;;6.00;99.90;;;;;;1940611;72;22337;-81
2022/12/02 07:16:09;;;;;;;10.80;7.95;;;6.00;99.90;;;;;;1902046;75;21110;-79
2022/12/02 07:19:01;;;;;;;11.05;8.20;;;6.00;99.90;;;;;;1898214;75;21333;-80
2022/12/02 07:21:53;;;;;;;12.88;8.18;;;6.00;99.90;;;;;;1905880;75;21538;-81
2022/12/02 07:27:31;;;;;;;9.90;7.53;;;6.00;99.90;;;;;;1935206;72;22205;-80
2022/12/02 07:30:26;;;;;;;11.08;7.87;;;6.00;99.90;;;;;;1887783;75;21146;-80
2022/12/02 07:33:17;;;;;;;11.03;7.60;;;6.00;99.90;;;;;;1887158;73;21196;-80
2022/12/02 07:36:10;;;;;;;12.30;7.58;;;6.10;99.90;;;;;;1901110;75;21158;-79
2022/12/02 07:39:02;;;;;;;12.65;7.85;;;6.10;99.90;;;;;;1893394;75;21071;-79
2022/12/02 07:44:36;;;;;;;17.07;8.90;;;6.10;99.90;;;;;;1948060;72;22121;-80
2022/12/02 07:47:30;;;;;;;10.32;7.40;;;6.20;99.90;;;;;;1923665;72;21172;-81
2022/12/02 07:50:22;;;;;;;11.30;7.78;;;6.20;99.90;;;;;;1904119;74;21114;-81
2022/12/02 07:53:17;;;;;;;10.80;8.03;;;6.20;99.90;;;;;;1917544;74;21447;-82
2022/12/02 07:56:09;;;;;;;11.45;8.25;;;6.20;99.90;;;;;;1903572;74;21150;-82
2022/12/02 07:59:01;;;;;;;11.65;8.30;;;6.20;99.90;;;;;;1914692;74;21178;-82
2022/12/02 08:01:54;;;;;;;9.93;7.87;;;6.20;99.90;;;;;;1915182;74;21109;-82
2022/12/02 08:04:45;;;;;;;10.32;7.53;;;6.30;99.90;;;;;;1911371;74;21144;-82
2022/12/02 08:07:37;;;;;;;10.93;7.37;;;6.20;99.90;;;;;;1904011;74;21151;-82
2022/12/02 08:10:29;;;;;;;11.25;7.87;;;6.20;99.90;;;;;;1915892;74;21184;-82
2022/12/02 08:13:20;;;;;;;11.83;7.85;;;6.20;99.90;;;;;;1932676;74;21155;-82
2022/12/02 08:18:50;;;;;;;9.30;7.03;;;6.20;99.90;;;;;;1920118;72;22253;-82
2022/12/02 08:21:44;;;;;;;12.05;7.03;;;6.20;99.90;;;;;;1890625;75;21664;-81
2022/12/02 08:27:14;;;;;;;8.70;6.90;;;6.20;99.90;;;;;;1919690;72;22239;-83
2022/12/02 08:30:08;;;;;;;10.25;6.72;;;6.30;99.90;;;;;;1906074;74;21180;-81
2022/12/02 08:33:00;;;;;;;9.88;6.95;;;6.30;99.90;;;;;;1879867;75;21110;-81
2022/12/02 08:38:35;;;;;;;11.75;6.95;;;6.40;99.90;;;;;;1933111;72;22138;-82
2022/12/02 08:41:27;;;;;;;12.33;6.90;;;6.40;99.90;;;;;;1902382;74;21137;-82
2022/12/02 08:46:58;;;;;;;11.65;7.35;;;6.50;99.90;;;;;;1931500;72;22900;-82
2022/12/02 08:52:39;;;;;;;11.70;6.62;;;6.50;99.90;;;;;;1949427;72;22194;-82
2022/12/02 08:58:09;;;;;;;10.63;7.10;;;6.60;99.90;;;;;;1947569;72;22224;-83
2022/12/02 09:01:01;;;;;;;11.95;8.00;;;6.60;99.90;;;;;;1885045;75;21094;-82
2022/12/02 09:03:53;;;;;;;13.53;7.85;;;6.60;99.90;;;;;;1882425;75;21102;-81
2022/12/02 09:06:44;;;;;;;11.57;6.92;;;6.60;99.90;;;;;;1902361;74;21099;-82
2022/12/02 09:12:15;;;;;;;9.30;6.37;;;6.60;99.90;;;;;;1940063;72;22245;-82
2022/12/02 09:15:09;;;;;;;10.65;7.05;;;6.60;99.90;;;;;;1900009;75;21107;-82
2022/12/02 09:18:00;;;;;;;11.90;7.85;;;6.70;99.90;;;;;;1892412;75;21120;-81
2022/12/02 09:20:56;;;;;;;13.15;8.63;;;6.70;99.90;;;;;;1892659;75;21154;-83
2022/12/02 09:23:47;;;;;;;12.98;7.20;;;6.70;99.90;;;;;;1880373;75;21511;-82
2022/12/02 09:26:40;;;;;;;12.60;7.42;;;6.80;99.90;;;;;;1880425;75;21118;-82
2022/12/02 09:32:10;;;;;;;8.93;7.08;;;6.90;99.90;;;;;;1930384;72;22304;-82
2022/12/02 09:35:05;;;;;;;12.10;7.55;;;7.00;99.90;;;;;;1903623;75;21167;-82
2022/12/02 09:37:56;;;;;;;11.95;6.97;;;7.10;99.90;;;;;;1878269;75;21086;-82
2022/12/02 09:40:50;;;;;;;9.88;6.80;;;7.20;99.90;;;;;;1916054;75;21097;-83
2022/12/02 09:46:24;;;;;;;9.25;6.97;;;7.40;99.90;;;;;;1928161;72;22216;-82
2022/12/02 09:49:16;;;;;;;10.58;7.00;;;7.50;99.90;;;;;;1898569;73;21144;-82
2022/12/02 09:52:14;;;;;;;15.00;7.42;;;7.50;99.90;;;;;;1883642;75;21082;-81
2022/12/02 09:57:43;;;;;;;10.95;7.03;;;7.50;99.90;;;;;;1934407;72;22346;-82
2022/12/02 10:00:35;;;;;;;12.45;6.70;;;7.60;99.90;;;;;;1893259;75;21171;-81
2022/12/02 10:03:29;;;;;;;8.50;6.28;;;7.70;99.90;;;;;;1900599;75;21099;-82
2022/12/02 10:06:24;;;;;;;9.08;6.87;;;7.80;99.90;;;;;;1897851;75;21130;-81
2022/12/02 10:09:18;;;;;;;10.45;7.08;;;7.90;99.90;;;;;;1883608;75;21573;-81
2022/12/02 10:12:14;;;;;;;10.48;7.33;;;8.00;99.90;;;;;;1883882;75;21224;-83
2022/12/02 10:15:07;;;;;;;11.48;7.47;;;8.00;99.90;;;;;;1904456;75;21114;-79
2022/12/02 10:18:01;;;;;;;10.30;7.87;;;8.00;99.90;;;;;;1903065;75;21156;-81
2022/12/02 10:23:32;;;;;;;15.20;7.85;;;8.30;99.90;;;;;;1951403;72;22123;-83
2022/12/02 10:26:26;;;;;;;10.90;7.40;;;8.20;99.90;;;;;;1913037;73;21176;-83
2022/12/02 10:32:02;;;;;;;13.15;7.80;;;8.20;99.90;;;;;;1940276;72;22154;-83
2022/12/02 10:35:06;;;;;;;9.88;7.22;;;8.20;99.90;;;;;;1906011;75;21117;-82
2022/12/02 10:37:58;;;;;;;11.83;6.90;;;8.20;99.90;;;;;;1889625;75;21105;-82
2022/12/02 10:40:49;;;;;;;12.50;7.62;;;8.40;99.90;;;;;;1887935;75;21150;-82
2022/12/02 10:43:41;;;;;;;11.80;7.25;;;8.40;99.90;;;;;;1904969;75;21094;-81
2022/12/02 10:46:34;;;;;;;9.95;6.53;;;8.40;99.90;;;;;;1888862;75;21148;-81
2022/12/02 10:52:20;;;;;;;10.03;7.08;;;8.70;99.90;;;;;;1952403;72;22176;-82
2022/12/02 10:57:50;;;;;;;10.38;6.58;;;8.90;99.90;;;;;;1944648;72;22231;-83
2022/12/02 11:00:42;;;;;;;9.85;6.75;;;9.00;99.90;;;;;;1904768;75;21118;-81
2022/12/02 11:03:34;;;;;;;8.45;5.80;;;9.00;99.90;;;;;;1883390;75;21105;-81
2022/12/02 11:06:27;;;;;;;7.97;6.00;;;9.00;99.90;;;;;;1910435;75;21096;-83
2022/12/02 11:12:40;;;;;;;6.60;5.50;;;9.10;99.90;;;;;;1946704;73;22299;-82
2022/12/02 11:18:35;;;;;;;9.35;5.97;;;9.20;99.90;;;;;;1934674;72;22194;-82
2022/12/02 11:21:41;;;;;;;8.68;5.83;;;9.20;99.90;;;;;;1904169;75;21095;-82
2022/12/02 11:27:18;;;;;;;7.83;5.85;;;9.30;99.90;;;;;;1952417;72;22228;-82
2022/12/02 11:34:13;;;;;;;9.40;7.05;;;9.20;99.90;;;;;;1923170;72;28095;-82
2022/12/02 11:37:40;;;;;;;9.73;6.92;;;9.40;99.90;;;;;;1883720;74;21102;-81
2022/12/02 11:41:05;;;;;;;8.70;6.45;;;9.40;99.90;;;;;;1902673;74;21100;-81
2022/12/02 11:44:09;;;;;;;9.83;6.55;;;9.40;99.90;;;;;;1894041;75;21150;-81
2022/12/02 11:47:02;;;;;;;7.97;5.87;;;9.30;99.90;;;;;;1899052;75;21127;-80
2022/12/02 11:52:40;;;;;;;9.33;6.70;;;9.30;99.90;;;;;;1931799;72;22273;-82
2022/12/02 11:58:19;;;;;;;12.30;6.60;;;9.20;99.90;;;;;;1952807;72;22677;-82
2022/12/02 12:01:14;;;;;;;10.15;6.85;;;9.20;99.90;;;;;;1909970;75;21086;-81
2022/12/02 12:04:07;;;;;;;9.18;6.28;;;9.10;99.90;;;;;;1905989;75;21090;-81
2022/12/02 12:07:00;;;;;;;9.38;7.20;;;9.20;99.90;;;;;;1883389;75;21152;-81
2022/12/02 12:13:12;;;;;;;10.60;6.22;;;9.30;99.90;;;;;;1963284;72;22216;-82
2022/12/02 12:18:50;;;;;;;9.70;6.65;;;9.10;99.90;;;;;;1910032;72;22758;-82
2022/12/02 12:24:33;;;;;;;8.70;6.15;;;9.00;99.90;;;;;;1942520;72;22278;-82
2022/12/02 12:27:36;;;;;;;8.35;6.62;;;8.90;99.90;;;;;;1896824;75;21637;-81
2022/12/02 12:33:12;;;;;;;9.30;6.42;;;8.80;99.90;;;;;;1962669;72;22108;-82
2022/12/02 12:36:04;;;;;;;7.15;6.17;;;8.80;99.90;;;;;;1916680;75;21183;-82
2022/12/02 12:38:56;;;;;;;8.90;6.55;;;8.90;99.90;;;;;;1916605;75;21433;-82
2022/12/02 12:44:31;;;;;;;10.65;6.90;;;9.10;99.90;;;;;;1926680;72;22194;-83
2022/12/02 12:47:23;;;;;;;9.35;6.53;;;9.10;99.90;;;;;;1874395;75;21229;-82
2022/12/02 12:50:15;;;;;;;11.45;6.80;;;9.10;99.90;;;;;;1871537;75;21118;-82
2022/12/02 12:53:06;;;;;;;8.70;6.55;;;9.10;99.90;;;;;;1873241;75;21120;-82
2022/12/02 12:55:59;;;;;;;7.83;6.05;;;9.10;99.90;;;;;;1889798;75;21241;-83
2022/12/02 12:58:51;;;;;;;8.68;6.33;;;9.10;99.90;;;;;;1880012;75;21115;-82
2022/12/02 13:04:26;;;;;;;11.55;6.58;;;8.70;99.90;;;;;;1928238;72;22162;-83
2022/12/02 13:07:18;;;;;;;9.15;7.00;;;8.70;99.90;;;;;;1894157;75;21456;-81
2022/12/02 13:10:12;;;;;;;8.93;6.05;;;8.70;99.90;;;;;;1882258;75;21182;-82
2022/12/02 13:13:03;;;;;;;9.05;6.62;;;8.60;99.90;;;;;;1876330;75;21401;-82
2022/12/02 13:15:55;;;;;;;11.25;7.33;;;8.40;99.90;;;;;;1872145;76;21102;-81
2022/12/02 13:18:46;;;;;;;11.65;6.72;;;8.40;99.90;;;;;;1898298;75;21099;-82
2022/12/02 13:21:38;;;;;;;11.57;7.92;;;8.30;99.90;;;;;;1875432;75;21233;-81
2022/12/02 13:27:09;;;;;;;10.88;6.95;;;8.10;99.90;;;;;;1922942;72;22287;-82
2022/12/02 13:30:01;;;;;;;10.03;7.10;;;7.90;99.90;;;;;;1929110;73;21106;-81
2022/12/02 13:32:53;;;;;;;7.85;5.87;;;7.80;99.90;;;;;;1911225;73;21050;-81
2022/12/02 13:35:45;;;;;;;12.40;7.65;;;7.90;99.90;;;;;;1901527;75;21153;-81
2022/12/02 13:38:37;;;;;;;10.82;7.80;;;7.90;99.90;;;;;;1896724;74;21158;-82
2022/12/02 13:41:28;;;;;;;11.00;7.20;;;7.90;99.90;;;;;;1916695;74;21129;-81
2022/12/02 13:44:20;;;;;;;9.98;7.80;;;7.90;99.90;;;;;;1916245;74;21676;-83
2022/12/02 13:47:12;;;;;;;12.30;7.80;;;7.90;99.90;;;;;;1918350;74;21101;-81
2022/12/02 13:50:04;;;;;;;11.65;7.67;;;7.90;99.90;;;;;;1897147;75;21155;-82
2022/12/02 13:52:56;;;;;;;13.30;9.03;;;7.80;99.90;;;;;;1917460;74;21120;-82
2022/12/02 13:55:47;;;;;;;16.85;9.63;;;7.90;99.90;;;;;;1918485;74;21192;-81
2022/12/02 13:58:40;;;;;;;11.78;8.58;;;7.80;99.90;;;;;;1919132;74;21098;-82
2022/12/02 14:01:33;;;;;;;11.60;8.73;;;7.80;99.90;;;;;;1919170;74;21108;-81
2022/12/02 14:04:24;;;;;;;12.90;9.00;;;7.80;99.90;;;;;;1918535;74;21144;-81
2022/12/02 14:07:16;;;;;;;12.55;8.45;;;7.80;99.90;;;;;;1913336;74;21178;-83
2022/12/02 14:10:10;;;;;;;12.95;8.70;;;7.80;99.90;;;;;;1918905;74;21058;-81
2022/12/02 14:13:01;;;;;;;14.40;8.75;;;7.90;99.90;;;;;;1914873;75;21210;-83
2022/12/02 14:15:53;;;;;;;11.88;8.10;;;7.90;99.90;;;;;;1920480;74;21519;-81
2022/12/02 14:18:45;;;;;;;11.03;8.05;;;7.80;99.90;;;;;;1908483;75;21226;-81
2022/12/02 14:21:43;;;;;;;11.43;8.05;;;7.90;99.90;;;;;;1920647;74;21133;-82
2022/12/02 14:24:34;;;;;;;12.25;8.80;;;7.90;99.90;;;;;;1905159;74;21166;-82
2022/12/02 14:27:25;;;;;;;12.82;7.75;;;7.90;99.90;;;;;;1890249;76;21608;-82
2022/12/02 14:30:19;;;;;;;14.53;8.88;;;8.00;99.90;;;;;;1838823;77;21576;-81
2022/12/02 14:33:11;;;;;;;16.93;7.97;;;7.90;99.90;;;;;;1923453;74;21650;-82
2022/12/02 14:36:03;;;;;;;12.70;8.80;;;8.00;99.90;;;;;;1861598;77;21118;-82
2022/12/02 14:38:55;;;;;;;12.58;8.78;;;8.10;99.90;;;;;;1918506;74;21142;-82
2022/12/02 14:41:46;;;;;;;14.43;8.60;;;8.00;99.90;;;;;;1916059;74;21162;-82
2022/12/02 14:44:38;;;;;;;11.88;8.78;;;7.90;99.90;;;;;;1915817;74;21054;-82
2022/12/02 14:47:29;;;;;;;14.60;9.70;;;8.00;99.90;;;;;;1906274;74;21141;-82
2022/12/02 14:50:26;;;;;;;16.05;9.45;;;8.10;99.90;;;;;;1898587;75;21090;-81
2022/12/02 14:53:14;;;;;;;12.60;9.33;;;8.00;99.90;;;;;;1918097;74;21130;-83
2022/12/02 14:56:06;;;;;;;15.15;8.85;;;7.90;99.90;;;;;;1921319;74;21094;-80
2022/12/02 14:58:58;;;;;;;12.37;8.33;;;7.90;99.90;;;;;;1916093;75;21128;-81
2022/12/02 15:01:49;;;;;;;15.00;8.13;;;7.80;99.90;;;;;;1915872;75;21146;-83
2022/12/02 15:04:41;;;;;;;14.15;8.48;;;7.80;99.90;;;;;;1894785;75;21109;-83
2022/12/02 15:07:33;;;;;;;13.58;8.00;;;7.80;99.90;;;;;;1915766;75;21167;-81
2022/12/02 15:10:26;;;;;;;11.30;8.25;;;7.70;99.90;;;;;;1919872;74;21093;-81
2022/12/02 15:13:17;;;;;;;12.47;8.60;;;7.70;99.90;;;;;;1904812;74;21113;-81
2022/12/02 15:16:21;;;;;;;12.40;8.58;;;7.70;99.90;;;;;;1895851;75;21106;-81
2022/12/02 15:19:22;;;;;;;15.30;9.18;;;7.70;99.90;;;;;;1894393;75;21089;-81
2022/12/02 15:22:14;;;;;;;12.37;8.60;;;7.60;99.90;;;;;;1915626;75;21154;-81
2022/12/02 15:25:13;;;;;;;12.13;8.73;;;7.60;99.90;;;;;;1916583;75;21119;-81
2022/12/02 15:28:04;;;;;;;13.32;9.38;;;7.70;99.90;;;;;;1908671;75;21114;-81
2022/12/02 15:30:56;;;;;;;14.58;9.45;;;7.60;99.90;;;;;;1903361;75;21114;-81
2022/12/02 15:33:54;;;;;;;13.78;9.63;;;7.50;99.90;;;;;;1905446;74;21102;-82
2022/12/02 15:36:51;;;;;;;15.53;9.68;;;7.50;99.90;;;;;;1913399;75;21235;-82
2022/12/02 15:39:49;;;;;;;14.33;10.15;;;7.50;99.90;;;;;;1905492;75;21171;-81
2022/12/02 15:42:41;;;;;;;13.62;9.48;;;7.50;99.90;;;;;;1906934;75;21617;-81
2022/12/02 15:45:33;;;;;;;15.20;9.85;;;7.40;99.90;;;;;;1909080;75;21160;-81
2022/12/02 15:48:26;;;;;;;14.80;10.28;;;7.50;99.90;;;;;;1915676;75;21200;-81
2022/12/02 15:51:23;;;;;;;15.30;9.53;;;7.40;99.90;;;;;;1905103;75;21110;-81
2022/12/02 15:54:15;;;;;;;16.87;10.60;;;7.40;99.90;;;;;;1912609;75;21150;-81
2022/12/02 15:57:13;;;;;;;16.45;10.28;;;7.30;99.90;;;;;;1915848;75;21151;-82
2022/12/02 16:00:13;;;;;;;16.40;10.80;;;7.30;99.90;;;;;;1903006;74;21596;-81
2022/12/02 16:03:11;;;;;;;14.85;10.50;;;7.20;99.90;;;;;;1894994;75;21147;-81
2022/12/02 16:06:11;;;;;;;14.95;10.82;;;7.20;99.90;;;;;;1889552;75;21143;-83
2022/12/02 16:09:02;;;;;;;14.05;10.43;;;7.20;99.90;;;;;;1906614;75;21143;-80
2022/12/02 16:11:54;;;;;;;17.12;10.98;;;7.20;99.90;;;;;;1847253;77;21203;-79
2022/12/02 16:17:24;;;;;;;15.13;10.38;;;7.30;99.90;;;;;;1942906;72;22318;-80
2022/12/02 16:20:16;;;;;;;14.78;10.55;;;7.30;99.90;;;;;;1918959;73;21135;-80
2022/12/02 16:23:07;;;;;;;20.32;10.88;;;7.20;99.90;;;;;;1894240;75;21115;-80
2022/12/02 16:25:59;;;;;;;15.83;10.78;;;7.20;99.90;;;;;;1916216;75;21095;-80
2022/12/02 16:28:50;;;;;;;17.77;10.95;;;7.20;99.90;;;;;;1916622;75;21135;-79
2022/12/02 16:31:42;;;;;;;16.32;10.70;;;7.20;99.90;;;;;;1916620;75;21164;-79
2022/12/02 16:34:36;;;;;;;16.97;11.22;;;7.20;99.90;;;;;;1916995;75;21515;-80
2022/12/02 16:37:28;;;;;;;16.80;10.58;;;7.20;99.90;;;;;;1916566;75;21117;-80
2022/12/02 16:40:20;;;;;;;14.28;10.68;;;7.20;99.90;;;;;;1916966;73;21228;-80
2022/12/02 16:43:11;;;;;;;17.75;11.73;;;7.20;99.90;;;;;;1916438;73;21114;-80
2022/12/02 16:46:03;;;;;;;17.55;11.80;;;7.20;99.90;;;;;;1939291;73;21116;-81
2022/12/02 16:48:54;;;;;;;19.48;12.13;;;7.20;99.90;;;;;;1863434;76;21114;-81
2022/12/02 16:51:46;;;;;;;17.77;11.57;;;7.20;99.90;;;;;;1856150;77;21170;-81
2022/12/02 16:54:38;;;;;;;15.20;11.10;;;7.20;99.90;;;;;;1920685;73;21558;-82
2022/12/02 16:57:30;;;;;;;20.23;11.33;;;7.10;99.90;;;;;;1916313;75;21597;-82
2022/12/02 17:00:22;;;;;;;17.82;11.20;;;7.10;99.90;;;;;;1916201;75;21124;-81
2022/12/02 17:03:14;;;;;;;17.85;11.22;;;7.20;99.90;;;;;;1916418;75;21684;-81
2022/12/02 17:06:06;;;;;;;14.90;10.05;;;7.30;99.90;;;;;;1880788;75;21177;-81
2022/12/02 17:08:57;;;;;;;14.33;10.68;;;7.40;99.90;;;;;;1879868;76;21730;-81
2022/12/02 17:11:49;;;;;;;17.80;11.73;;;7.30;99.90;;;;;;1879731;76;21118;-81
2022/12/02 17:14:40;;;;;;;17.42;11.30;;;7.20;99.90;;;;;;1931943;73;21187;-81
2022/12/02 17:17:32;;;;;;;16.32;11.33;;;7.10;99.90;;;;;;1917284;73;21201;-81
2022/12/02 17:20:25;;;;;;;14.35;10.30;;;7.10;99.90;;;;;;1944552;73;21158;-81
2022/12/02 17:23:16;;;;;;;16.60;11.78;;;7.10;99.90;;;;;;1926903;73;21101;-80
2022/12/02 17:26:08;;;;;;;16.45;11.08;;;7.20;99.90;;;;;;1879494;75;21137;-81
2022/12/02 17:29:00;;;;;;;16.85;10.98;;;7.10;99.90;;;;;;1928601;73;21109;-81
2022/12/02 17:31:52;;;;;;;18.32;11.53;;;7.10;99.90;;;;;;1882488;75;21101;-82
2022/12/02 17:34:45;;;;;;;16.30;10.90;;;7.10;99.90;;;;;;1919890;74;21132;-81
2022/12/02 17:37:36;;;;;;;17.50;10.55;;;7.10;99.90;;;;;;1916071;75;21098;-81
2022/12/02 17:40:28;;;;;;;17.00;11.55;;;7.10;99.90;;;;;;1915943;75;21173;-81
2022/12/02 17:43:19;;;;;;;16.40;11.30;;;7.20;99.90;;;;;;1878684;76;21209;-81
2022/12/02 17:46:11;;;;;;;17.45;11.50;;;7.10;99.90;;;;;;1919113;74;21184;-81
2022/12/02 17:49:03;;;;;;;16.80;11.30;;;7.00;99.90;;;;;;1937302;73;21106;-81
2022/12/02 17:51:55;;;;;;;17.10;12.10;;;6.90;99.90;;;;;;1878739;76;21180;-82
2022/12/02 17:54:48;;;;;;;17.77;12.03;;;7.00;99.90;;;;;;1942549;73;21118;-80
2022/12/02 17:57:41;;;;;;;16.70;11.85;;;6.90;99.90;;;;;;1871577;76;21117;-86
2022/12/02 18:03:17;;;;;;;15.70;11.48;;;6.90;99.90;;;;;;1956799;72;22179;-86
2022/12/02 18:06:09;;;;;;;16.60;11.93;;;6.90;99.90;;;;;;1908823;75;21090;-85
2022/12/02 18:09:00;;;;;;;16.15;11.60;;;6.90;99.90;;;;;;1881224;75;21128;-86